sensor_id;sensor_type;location;lat;lon;timestamp;pressure;altitude;pressure_sealevel;temperature;humidity
55171;BME280;41060;47.510;8.680;2022-12-10T00:01:29;95735.38;;;3.38;62.19
55171;BME280;41060;47.510;8.680;2022-12-10T00:03:59;95707.31;;;3.16;62.30
55171;BME280;41060;47.510;8.680;2022-12-10T00:06:27;95774.56;;;3.50;62.19
55171;BME280;41060;47.510;8.680;2022-12-10T00:08:54;95780.63;;;3.51;62.23
55171;BME280;41060;47.510;8.680;2022-12-10T00:11:23;95777.63;;;3.44;62.31
55171;BME280;41060;47.510;8.680;2022-12-10T00:13:51;95769.94;;;3.43;62.91
55171;BME280;41060;47.510;8.680;2022-12-10T00:16:19;95763.50;;;3.47;62.62
55171;BME280;41060;47.510;8.680;2022-12-10T00:18:47;95767.16;;;3.44;63.03
55171;BME280;41060;47.510;8.680;2022-12-10T00:21:18;95746.28;;;3.31;62.51
55171;BME280;41060;47.510;8.680;2022-12-10T00:23:48;95765.06;;;3.36;63.05
55171;BME280;41060;47.510;8.680;2022-12-10T00:26:17;95758.31;;;3.34;62.99
55171;BME280;41060;47.510;8.680;2022-12-10T00:28:46;95740.19;;;3.31;62.51
55171;BME280;41060;47.510;8.680;2022-12-10T00:31:15;95757.88;;;3.40;62.70
55171;BME280;41060;47.510;8.680;2022-12-10T00:33:43;95759.78;;;3.38;62.41
55171;BME280;41060;47.510;8.680;2022-12-10T00:36:11;95751.84;;;3.51;62.39
55171;BME280;41060;47.510;8.680;2022-12-10T00:38:41;95744.16;;;3.49;62.56
55171;BME280;41060;47.510;8.680;2022-12-10T00:41:08;95721.28;;;3.27;62.01
55171;BME280;41060;47.510;8.680;2022-12-10T00:43:35;95755.63;;;3.23;62.78
55171;BME280;41060;47.510;8.680;2022-12-10T00:46:01;95747.44;;;3.27;62.89
55171;BME280;41060;47.510;8.680;2022-12-10T00:48:29;95714.53;;;3.36;61.96
55171;BME280;41060;47.510;8.680;2022-12-10T00:50:57;95739.09;;;3.70;61.59
55171;BME280;41060;47.510;8.680;2022-12-10T00:53:28;95734.63;;;3.83;61.38
55171;BME280;41060;47.510;8.680;2022-12-10T00:55:58;95740.34;;;3.88;61.46
55171;BME280;41060;47.510;8.680;2022-12-10T00:58:27;95732.75;;;3.96;60.92
55171;BME280;41060;47.510;8.680;2022-12-10T01:00:54;95722.38;;;3.95;60.45
55171;BME280;41060;47.510;8.680;2022-12-10T01:03:21;95738.69;;;3.87;61.16
55171;BME280;41060;47.510;8.680;2022-12-10T01:05:48;95747.25;;;3.89;60.92
55171;BME280;41060;47.510;8.680;2022-12-10T01:08:15;95740.47;;;3.87;61.38
55171;BME280;41060;47.510;8.680;2022-12-10T01:10:42;95748.38;;;3.74;61.40
55171;BME280;41060;47.510;8.680;2022-12-10T01:13:10;95752.41;;;3.67;61.94
55171;BME280;41060;47.510;8.680;2022-12-10T01:15:37;95750.41;;;3.70;61.82
55171;BME280;41060;47.510;8.680;2022-12-10T01:18:05;95746.22;;;3.68;61.53
55171;BME280;41060;47.510;8.680;2022-12-10T01:20:34;95748.50;;;3.72;61.41
55171;BME280;41060;47.510;8.680;2022-12-10T01:23:03;95748.38;;;3.74;61.01
55171;BME280;41060;47.510;8.680;2022-12-10T01:25:30;95746.72;;;3.73;61.63
55171;BME280;41060;47.510;8.680;2022-12-10T01:27:56;95761.72;;;3.71;61.80
55171;BME280;41060;47.510;8.680;2022-12-10T01:30:24;95714.94;;;3.19;62.12
55171;BME280;41060;47.510;8.680;2022-12-10T01:32:54;95772.59;;;3.54;62.36
55171;BME280;41060;47.510;8.680;2022-12-10T01:35:20;95769.78;;;3.44;62.24
55171;BME280;41060;47.510;8.680;2022-12-10T01:37:50;95765.41;;;3.45;62.47
55171;BME280;41060;47.510;8.680;2022-12-10T01:40:17;95764.94;;;3.51;61.84
55171;BME280;41060;47.510;8.680;2022-12-10T01:42:43;95754.16;;;3.55;61.89
55171;BME280;41060;47.510;8.680;2022-12-10T01:45:12;95753.97;;;3.69;61.64
55171;BME280;41060;47.510;8.680;2022-12-10T01:47:40;95752.56;;;3.77;61.00
55171;BME280;41060;47.510;8.680;2022-12-10T01:50:07;95755.94;;;3.79;61.08
55171;BME280;41060;47.510;8.680;2022-12-10T01:52:35;95719.25;;;3.44;61.54
55171;BME280;41060;47.510;8.680;2022-12-10T01:55:34;95757.69;;;3.78;61.89
55171;BME280;41060;47.510;8.680;2022-12-10T01:57:55;95760.34;;;3.89;60.74
55171;BME280;41060;47.510;8.680;2022-12-10T02:00:22;95760.44;;;3.77;61.26
55171;BME280;41060;47.510;8.680;2022-12-10T02:02:55;95762.50;;;3.60;61.62
55171;BME280;41060;47.510;8.680;2022-12-10T02:05:28;95678.31;;;2.95;62.51
55171;BME280;41060;47.510;8.680;2022-12-10T02:08:05;95771.06;;;3.39;62.70
55171;BME280;41060;47.510;8.680;2022-12-10T02:10:45;95772.75;;;3.40;62.72
55171;BME280;41060;47.510;8.680;2022-12-10T02:13:18;95769.47;;;3.49;62.80
55171;BME280;41060;47.510;8.680;2022-12-10T02:15:51;95778.09;;;3.62;62.57
55171;BME280;41060;47.510;8.680;2022-12-10T02:18:21;95779.31;;;3.69;61.60
55171;BME280;41060;47.510;8.680;2022-12-10T02:20:54;95771.47;;;3.69;61.86
55171;BME280;41060;47.510;8.680;2022-12-10T02:23:25;95777.31;;;3.49;62.80
55171;BME280;41060;47.510;8.680;2022-12-10T02:25:58;95786.56;;;3.42;62.92
55171;BME280;41060;47.510;8.680;2022-12-10T02:28:34;95793.22;;;3.46;63.23
55171;BME280;41060;47.510;8.680;2022-12-10T02:31:06;95789.63;;;3.59;62.61
55171;BME280;41060;47.510;8.680;2022-12-10T02:33:36;95781.81;;;3.70;62.35
55171;BME280;41060;47.510;8.680;2022-12-10T02:36:05;95779.31;;;3.69;61.74
55171;BME280;41060;47.510;8.680;2022-12-10T02:38:36;95780.75;;;3.73;61.59
55171;BME280;41060;47.510;8.680;2022-12-10T02:41:06;95768.44;;;3.86;61.92
55171;BME280;41060;47.510;8.680;2022-12-10T02:43:34;95771.34;;;3.94;61.33
55171;BME280;41060;47.510;8.680;2022-12-10T02:46:03;95768.16;;;4.02;60.63
55171;BME280;41060;47.510;8.680;2022-12-10T02:48:32;95763.97;;;4.10;60.68
55171;BME280;41060;47.510;8.680;2022-12-10T02:51:00;95760.63;;;3.97;60.72
55171;BME280;41060;47.510;8.680;2022-12-10T02:53:27;95757.19;;;3.73;61.81
55171;BME280;41060;47.510;8.680;2022-12-10T02:56:04;95758.28;;;3.82;62.10
55171;BME280;41060;47.510;8.680;2022-12-10T02:58:40;95723.66;;;3.78;61.32
55171;BME280;41060;47.510;8.680;2022-12-10T03:01:22;95757.66;;;4.02;61.30
55171;BME280;41060;47.510;8.680;2022-12-10T03:03:56;95759.69;;;3.74;61.48
55171;BME280;41060;47.510;8.680;2022-12-10T03:06:30;95765.78;;;3.75;61.74
55171;BME280;41060;47.510;8.680;2022-12-10T03:09:02;95757.06;;;3.63;62.02
55171;BME280;41060;47.510;8.680;2022-12-10T03:11:32;95759.78;;;3.62;62.38
55171;BME280;41060;47.510;8.680;2022-12-10T03:14:02;95757.75;;;3.65;62.46
55171;BME280;41060;47.510;8.680;2022-12-10T03:16:34;95770.97;;;3.64;62.39
55171;BME280;41060;47.510;8.680;2022-12-10T03:19:05;95740.94;;;3.33;62.49
55171;BME280;41060;47.510;8.680;2022-12-10T03:21:33;95768.56;;;3.61;62.24
55171;BME280;41060;47.510;8.680;2022-12-10T03:24:02;95761.75;;;3.58;62.81
55171;BME280;41060;47.510;8.680;2022-12-10T03:26:30;95755.94;;;3.55;62.21
55171;BME280;41060;47.510;8.680;2022-12-10T03:29:01;95758.31;;;3.58;62.54
55171;BME280;41060;47.510;8.680;2022-12-10T03:31:31;95751.72;;;3.65;62.55
55171;BME280;41060;47.510;8.680;2022-12-10T03:33:59;95744.06;;;3.62;62.62
55171;BME280;41060;47.510;8.680;2022-12-10T03:36:28;95737.78;;;3.64;62.35
55171;BME280;41060;47.510;8.680;2022-12-10T03:38:57;95742.84;;;3.55;62.66
55171;BME280;41060;47.510;8.680;2022-12-10T03:41:24;95754.31;;;3.28;63.29
55171;BME280;41060;47.510;8.680;2022-12-10T03:43:52;95739.06;;;3.22;63.38
55171;BME280;41060;47.510;8.680;2022-12-10T03:46:20;95743.66;;;3.31;63.13
55171;BME280;41060;47.510;8.680;2022-12-10T03:48:47;95745.44;;;3.31;63.40
55171;BME280;41060;47.510;8.680;2022-12-10T03:51:13;95746.59;;;3.40;62.97
55171;BME280;41060;47.510;8.680;2022-12-10T03:53:42;95756.50;;;3.47;62.07
55171;BME280;41060;47.510;8.680;2022-12-10T03:56:08;95742.09;;;3.29;62.53
55171;BME280;41060;47.510;8.680;2022-12-10T03:58:35;95754.59;;;3.49;62.35
55171;BME280;41060;47.510;8.680;2022-12-10T04:01:03;95758.94;;;3.61;61.75
55171;BME280;41060;47.510;8.680;2022-12-10T04:03:29;95755.03;;;3.67;61.17
55171;BME280;41060;47.510;8.680;2022-12-10T04:06:01;95752.19;;;3.46;62.22
55171;BME280;41060;47.510;8.680;2022-12-10T04:08:28;95759.78;;;3.38;62.06
55171;BME280;41060;47.510;8.680;2022-12-10T04:11:02;95768.78;;;3.34;62.86
55171;BME280;41060;47.510;8.680;2022-12-10T04:13:31;95768.88;;;3.32;62.56
55171;BME280;41060;47.510;8.680;2022-12-10T04:16:16;95768.25;;;3.42;62.92
55171;BME280;41060;47.510;8.680;2022-12-10T04:18:57;95768.84;;;3.45;62.52
55171;BME280;41060;47.510;8.680;2022-12-10T04:21:24;95772.94;;;3.49;61.56
55171;BME280;41060;47.510;8.680;2022-12-10T04:24:09;95774.47;;;3.52;61.86
55171;BME280;41060;47.510;8.680;2022-12-10T04:26:56;95776.25;;;3.51;61.44
55171;BME280;41060;47.510;8.680;2022-12-10T04:29:25;95772.59;;;3.54;61.21
55171;BME280;41060;47.510;8.680;2022-12-10T04:31:53;95754.09;;;3.68;61.23
55171;BME280;41060;47.510;8.680;2022-12-10T04:34:20;95742.31;;;3.73;61.41
55171;BME280;41060;47.510;8.680;2022-12-10T04:36:47;95746.03;;;3.82;60.64
55171;BME280;41060;47.510;8.680;2022-12-10T04:39:15;95704.91;;;3.36;61.30
55171;BME280;41060;47.510;8.680;2022-12-10T04:41:44;95758.66;;;3.53;61.93
55171;BME280;41060;47.510;8.680;2022-12-10T04:44:14;95768.06;;;3.56;61.38
55171;BME280;41060;47.510;8.680;2022-12-10T04:46:40;95724.00;;;3.26;62.17
55171;BME280;41060;47.510;8.680;2022-12-10T04:49:07;95769.91;;;3.66;61.27
55171;BME280;41060;47.510;8.680;2022-12-10T04:51:38;95745.22;;;3.58;61.60
55171;BME280;41060;47.510;8.680;2022-12-10T04:54:04;95751.56;;;3.66;61.32
55171;BME280;41060;47.510;8.680;2022-12-10T04:56:31;95752.19;;;3.70;61.44
55171;BME280;41060;47.510;8.680;2022-12-10T04:59:00;95762.69;;;3.81;60.97
55171;BME280;41060;47.510;8.680;2022-12-10T05:01:28;95688.09;;;3.41;60.63
55171;BME280;41060;47.510;8.680;2022-12-10T05:03:58;95754.56;;;3.73;61.13
55171;BME280;41060;47.510;8.680;2022-12-10T05:06:25;95750.53;;;3.69;61.18
55171;BME280;41060;47.510;8.680;2022-12-10T05:08:52;95754.34;;;3.76;61.09
55171;BME280;41060;47.510;8.680;2022-12-10T05:11:21;95733.03;;;3.69;60.70
55171;BME280;41060;47.510;8.680;2022-12-10T05:13:49;95757.81;;;3.77;60.46
55171;BME280;41060;47.510;8.680;2022-12-10T05:16:18;95756.09;;;3.64;60.95
55171;BME280;41060;47.510;8.680;2022-12-10T05:18:47;95757.78;;;3.42;61.78
55171;BME280;41060;47.510;8.680;2022-12-10T05:21:15;95771.16;;;3.50;61.56
55171;BME280;41060;47.510;8.680;2022-12-10T05:23:45;95768.53;;;3.50;61.71
55171;BME280;41060;47.510;8.680;2022-12-10T05:26:13;95774.19;;;3.44;62.23
55171;BME280;41060;47.510;8.680;2022-12-10T05:28:43;95777.63;;;3.44;62.14
55171;BME280;41060;47.510;8.680;2022-12-10T05:31:14;95775.19;;;3.54;61.38
55171;BME280;41060;47.510;8.680;2022-12-10T05:33:42;95767.69;;;3.49;61.77
55171;BME280;41060;47.510;8.680;2022-12-10T05:36:12;95767.06;;;3.46;62.12
55171;BME280;41060;47.510;8.680;2022-12-10T05:38:40;95780.03;;;3.47;61.68
55171;BME280;41060;47.510;8.680;2022-12-10T05:41:11;95777.44;;;3.47;61.62
55171;BME280;41060;47.510;8.680;2022-12-10T05:43:37;95778.16;;;3.36;62.16
55171;BME280;41060;47.510;8.680;2022-12-10T05:46:07;95781.34;;;3.42;62.41
55171;BME280;41060;47.510;8.680;2022-12-10T05:48:36;95770.59;;;3.57;61.61
55171;BME280;41060;47.510;8.680;2022-12-10T05:51:03;95786.16;;;3.59;61.75
55171;BME280;41060;47.510;8.680;2022-12-10T05:53:31;95785.50;;;3.68;61.72
55171;BME280;41060;47.510;8.680;2022-12-10T05:55:59;95677.94;;;2.88;61.90
55171;BME280;41060;47.510;8.680;2022-12-10T05:58:27;95784.34;;;3.72;61.36
55171;BME280;41060;47.510;8.680;2022-12-10T06:00:54;95787.72;;;3.85;60.30
55171;BME280;41060;47.510;8.680;2022-12-10T06:03:22;95797.34;;;3.85;60.64
55171;BME280;41060;47.510;8.680;2022-12-10T06:05:48;95804.09;;;3.52;60.91
55171;BME280;41060;47.510;8.680;2022-12-10T06:08:15;95795.47;;;3.39;61.70
55171;BME280;41060;47.510;8.680;2022-12-10T06:10:43;95804.09;;;3.52;61.49
55171;BME280;41060;47.510;8.680;2022-12-10T06:13:10;95802.53;;;3.73;61.00
55171;BME280;41060;47.510;8.680;2022-12-10T06:15:39;95783.81;;;3.67;60.54
55171;BME280;41060;47.510;8.680;2022-12-10T06:18:07;95801.31;;;3.43;61.13
55171;BME280;41060;47.510;8.680;2022-12-10T06:20:37;95805.09;;;3.39;62.14
55171;BME280;41060;47.510;8.680;2022-12-10T06:23:04;95795.13;;;3.44;61.58
55171;BME280;41060;47.510;8.680;2022-12-10T06:25:32;95794.75;;;3.61;61.19
55171;BME280;41060;47.510;8.680;2022-12-10T06:28:00;95785.41;;;3.33;61.80
55171;BME280;41060;47.510;8.680;2022-12-10T06:30:27;95800.59;;;3.28;61.88
55171;BME280;41060;47.510;8.680;2022-12-10T06:32:54;95761.78;;;2.98;62.82
55171;BME280;41060;47.510;8.680;2022-12-10T06:35:21;95791.00;;;3.16;62.03
55171;BME280;41060;47.510;8.680;2022-12-10T06:37:48;95807.47;;;3.29;62.52
55171;BME280;41060;47.510;8.680;2022-12-10T06:40:16;95802.97;;;3.31;62.11
55171;BME280;41060;47.510;8.680;2022-12-10T06:42:43;95815.47;;;3.27;61.62
55171;BME280;41060;47.510;8.680;2022-12-10T06:45:11;95817.09;;;3.28;62.00
55171;BME280;41060;47.510;8.680;2022-12-10T06:47:38;95791.19;;;3.25;62.08
55171;BME280;41060;47.510;8.680;2022-12-10T06:50:05;95817.09;;;3.28;62.06
55171;BME280;41060;47.510;8.680;2022-12-10T06:52:32;95779.53;;;3.06;61.99
55171;BME280;41060;47.510;8.680;2022-12-10T06:54:59;95812.03;;;3.14;62.53
55171;BME280;41060;47.510;8.680;2022-12-10T06:57:25;95819.41;;;2.84;63.26
55171;BME280;41060;47.510;8.680;2022-12-10T06:59:52;95813.56;;;2.80;63.28
55171;BME280;41060;47.510;8.680;2022-12-10T07:02:20;95833.00;;;2.89;63.32
55171;BME280;41060;47.510;8.680;2022-12-10T07:04:47;95836.16;;;2.81;63.53
55171;BME280;41060;47.510;8.680;2022-12-10T07:07:13;95834.00;;;3.12;62.80
55171;BME280;41060;47.510;8.680;2022-12-10T07:09:41;95825.78;;;3.29;62.21
55171;BME280;41060;47.510;8.680;2022-12-10T07:12:07;95836.81;;;3.21;62.62
55171;BME280;41060;47.510;8.680;2022-12-10T07:14:34;95833.41;;;2.95;63.63
55171;BME280;41060;47.510;8.680;2022-12-10T07:17:01;95837.19;;;2.79;63.88
55171;BME280;41060;47.510;8.680;2022-12-10T07:19:30;95842.28;;;2.93;63.57
55171;BME280;41060;47.510;8.680;2022-12-10T07:21:56;95841.31;;;3.07;63.16
55171;BME280;41060;47.510;8.680;2022-12-10T07:24:24;95839.34;;;3.10;62.43
55171;BME280;41060;47.510;8.680;2022-12-10T07:26:52;95839.84;;;3.28;62.28
55171;BME280;41060;47.510;8.680;2022-12-10T07:29:20;95842.38;;;3.17;62.83
55171;BME280;41060;47.510;8.680;2022-12-10T07:31:49;95847.63;;;3.04;62.86
55171;BME280;41060;47.510;8.680;2022-12-10T07:34:15;95736.56;;;2.35;63.05
55171;BME280;41060;47.510;8.680;2022-12-10T07:36:44;95850.75;;;3.09;62.64
55171;BME280;41060;47.510;8.680;2022-12-10T07:39:12;95847.94;;;3.12;62.02
55171;BME280;41060;47.510;8.680;2022-12-10T07:41:43;95848.78;;;3.13;62.31
55171;BME280;41060;47.510;8.680;2022-12-10T07:44:11;95852.19;;;3.13;62.60
55171;BME280;41060;47.510;8.680;2022-12-10T07:46:39;95852.50;;;3.21;62.45
55171;BME280;41060;47.510;8.680;2022-12-10T07:49:06;95856.19;;;3.19;62.21
55171;BME280;41060;47.510;8.680;2022-12-10T07:51:33;95828.38;;;3.05;62.40
55171;BME280;41060;47.510;8.680;2022-12-10T07:54:02;95824.69;;;3.08;62.10
55171;BME280;41060;47.510;8.680;2022-12-10T07:56:29;95860.78;;;3.15;61.87
55171;BME280;41060;47.510;8.680;2022-12-10T07:58:55;95774.91;;;2.60;62.43
55171;BME280;41060;47.510;8.680;2022-12-10T08:01:24;95864.13;;;3.17;62.36
55171;BME280;41060;47.510;8.680;2022-12-10T08:03:53;95868.44;;;3.06;62.78
55171;BME280;41060;47.510;8.680;2022-12-10T08:06:23;95873.84;;;3.15;62.63
55171;BME280;41060;47.510;8.680;2022-12-10T08:08:50;95865.06;;;3.16;62.21
55171;BME280;41060;47.510;8.680;2022-12-10T08:11:20;95867.69;;;3.16;62.20
55171;BME280;41060;47.510;8.680;2022-12-10T08:13:48;95873.97;;;3.26;61.98
55171;BME280;41060;47.510;8.680;2022-12-10T08:16:16;95878.75;;;3.32;61.98
55171;BME280;41060;47.510;8.680;2022-12-10T08:18:44;95843.94;;;3.07;61.91
55171;BME280;41060;47.510;8.680;2022-12-10T08:21:16;95894.44;;;3.32;61.91
55171;BME280;41060;47.510;8.680;2022-12-10T08:23:43;95899.78;;;3.31;62.32
55171;BME280;41060;47.510;8.680;2022-12-10T08:26:13;95907.00;;;3.15;62.71
55171;BME280;41060;47.510;8.680;2022-12-10T08:28:43;95914.56;;;3.19;62.42
55171;BME280;41060;47.510;8.680;2022-12-10T08:31:11;95913.09;;;3.28;62.26
55171;BME280;41060;47.510;8.680;2022-12-10T08:33:39;95899.78;;;3.31;62.60
55171;BME280;41060;47.510;8.680;2022-12-10T08:36:07;95918.63;;;3.23;62.40
55171;BME280;41060;47.510;8.680;2022-12-10T08:38:35;95909.91;;;3.35;63.51
55171;BME280;41060;47.510;8.680;2022-12-10T08:41:05;95920.31;;;3.50;62.57
55171;BME280;41060;47.510;8.680;2022-12-10T08:43:33;95914.63;;;3.56;61.86
55171;BME280;41060;47.510;8.680;2022-12-10T08:46:01;95916.28;;;3.69;60.96
55171;BME280;41060;47.510;8.680;2022-12-10T08:48:28;95919.13;;;3.54;61.12
55171;BME280;41060;47.510;8.680;2022-12-10T08:50:55;95920.31;;;3.50;61.22
55171;BME280;41060;47.510;8.680;2022-12-10T08:53:22;95905.34;;;3.14;61.48
55171;BME280;41060;47.510;8.680;2022-12-10T08:55:50;95937.38;;;3.43;61.65
55171;BME280;41060;47.510;8.680;2022-12-10T08:58:17;95939.53;;;3.36;61.99
55171;BME280;41060;47.510;8.680;2022-12-10T09:00:44;95936.84;;;3.38;62.06
55171;BME280;41060;47.510;8.680;2022-12-10T09:03:12;95927.03;;;3.41;61.99
55171;BME280;41060;47.510;8.680;2022-12-10T09:05:39;95935.06;;;3.38;61.27
55171;BME280;41060;47.510;8.680;2022-12-10T09:08:06;95942.16;;;3.36;61.90
55171;BME280;41060;47.510;8.680;2022-12-10T09:10:33;95947.31;;;3.25;62.12
55171;BME280;41060;47.510;8.680;2022-12-10T09:13:01;95949.91;;;3.25;62.33
55171;BME280;41060;47.510;8.680;2022-12-10T09:15:28;95945.28;;;3.28;62.30
55171;BME280;41060;47.510;8.680;2022-12-10T09:17:54;95952.44;;;3.26;62.86
55171;BME280;41060;47.510;8.680;2022-12-10T09:20:25;95953.06;;;3.17;62.83
55171;BME280;41060;47.510;8.680;2022-12-10T09:22:52;95952.13;;;3.18;63.02
55171;BME280;41060;47.510;8.680;2022-12-10T09:25:18;95962.56;;;3.31;62.72
55171;BME280;41060;47.510;8.680;2022-12-10T09:27:47;95969.91;;;3.26;62.43
55171;BME280;41060;47.510;8.680;2022-12-10T09:30:16;95964.34;;;3.18;62.43
55171;BME280;41060;47.510;8.680;2022-12-10T09:32:43;95966.22;;;3.28;62.15
55171;BME280;41060;47.510;8.680;2022-12-10T09:35:10;95970.00;;;3.24;62.53
55171;BME280;41060;47.510;8.680;2022-12-10T09:37:38;95975.56;;;3.20;62.89
55171;BME280;41060;47.510;8.680;2022-12-10T09:40:05;95990.00;;;3.25;62.54
55171;BME280;41060;47.510;8.680;2022-12-10T09:42:45;95990.28;;;3.21;62.42
55171;BME280;41060;47.510;8.680;2022-12-10T09:45:20;95987.16;;;3.16;62.90
55171;BME280;41060;47.510;8.680;2022-12-10T09:47:57;95985.56;;;3.13;62.81
55171;BME280;41060;47.510;8.680;2022-12-10T09:50:31;95987.47;;;3.11;62.83
55171;BME280;41060;47.510;8.680;2022-12-10T09:53:02;95971.06;;;2.96;63.26
55171;BME280;41060;47.510;8.680;2022-12-10T09:55:32;95981.50;;;3.09;63.19
55171;BME280;41060;47.510;8.680;2022-12-10T09:58:02;95980.88;;;3.18;62.76
55171;BME280;41060;47.510;8.680;2022-12-10T10:00:35;95972.44;;;3.27;62.58
55171;BME280;41060;47.510;8.680;2022-12-10T10:03:04;95974.81;;;3.30;62.17
55171;BME280;41060;47.510;8.680;2022-12-10T10:05:35;95974.03;;;3.43;61.74
55171;BME280;41060;47.510;8.680;2022-12-10T10:08:05;95977.00;;;3.24;62.85
55171;BME280;41060;47.510;8.680;2022-12-10T10:10:35;95975.91;;;3.41;62.52
55171;BME280;41060;47.510;8.680;2022-12-10T10:13:14;95974.81;;;3.18;62.16
55171;BME280;41060;47.510;8.680;2022-12-10T10:15:44;95959.53;;;2.99;63.53
55171;BME280;41060;47.510;8.680;2022-12-10T10:18:15;95978.56;;;3.01;62.97
55171;BME280;41060;47.510;8.680;2022-12-10T10:20:44;95978.81;;;2.98;63.06
55171;BME280;41060;47.510;8.680;2022-12-10T10:23:15;95985.16;;;3.07;62.71
55171;BME280;41060;47.510;8.680;2022-12-10T10:25:42;95981.00;;;3.17;62.80
55171;BME280;41060;47.510;8.680;2022-12-10T10:28:11;95993.56;;;3.12;62.36
55171;BME280;41060;47.510;8.680;2022-12-10T10:30:41;95991.75;;;3.00;63.32
55171;BME280;41060;47.510;8.680;2022-12-10T10:33:11;95979.41;;;2.89;62.89
55171;BME280;41060;47.510;8.680;2022-12-10T10:35:44;95987.16;;;2.90;62.82
55171;BME280;41060;47.510;8.680;2022-12-10T10:38:19;95957.59;;;2.63;62.52
55171;BME280;41060;47.510;8.680;2022-12-10T10:40:50;95991.66;;;3.01;63.03
55171;BME280;41060;47.510;8.680;2022-12-10T10:43:20;95995.19;;;3.00;63.24
55171;BME280;41060;47.510;8.680;2022-12-10T10:45:52;96013.06;;;2.81;62.92
55171;BME280;41060;47.510;8.680;2022-12-10T10:48:22;95997.38;;;2.93;63.17
55171;BME280;41060;47.510;8.680;2022-12-10T10:50:51;96005.25;;;3.06;62.94
55171;BME280;41060;47.510;8.680;2022-12-10T10:53:43;96001.81;;;3.18;62.50
55171;BME280;41060;47.510;8.680;2022-12-10T10:56:12;96006.22;;;3.30;62.32
55171;BME280;41060;47.510;8.680;2022-12-10T10:58:49;95979.22;;;3.05;62.58
55171;BME280;41060;47.510;8.680;2022-12-10T11:01:17;96008.31;;;3.13;63.28
55171;BME280;41060;47.510;8.680;2022-12-10T11:03:47;96005.25;;;3.06;63.18
55171;BME280;41060;47.510;8.680;2022-12-10T11:06:14;96015.09;;;3.03;62.97
55171;BME280;41060;47.510;8.680;2022-12-10T11:08:44;96010.47;;;2.93;62.21
55171;BME280;41060;47.510;8.680;2022-12-10T11:11:17;96009.28;;;2.85;62.88
55171;BME280;41060;47.510;8.680;2022-12-10T11:13:46;96018.31;;;3.06;61.58
55171;BME280;41060;47.510;8.680;2022-12-10T11:16:18;96018.78;;;3.13;61.69
55171;BME280;41060;47.510;8.680;2022-12-10T11:18:54;96023.25;;;2.98;61.48
55171;BME280;41060;47.510;8.680;2022-12-10T11:21:22;95980.00;;;2.80;61.52
55171;BME280;41060;47.510;8.680;2022-12-10T11:23:52;96020.97;;;3.19;61.69
55171;BME280;41060;47.510;8.680;2022-12-10T11:26:42;96001.16;;;3.02;61.74
55171;BME280;41060;47.510;8.680;2022-12-10T11:29:34;96021.25;;;3.14;61.55
55171;BME280;41060;47.510;8.680;2022-12-10T11:32:14;96023.88;;;3.14;61.27
55171;BME280;41060;47.510;8.680;2022-12-10T11:34:55;95970.53;;;3.04;61.07
55171;BME280;41060;47.510;8.680;2022-12-10T11:37:30;96019.72;;;3.24;60.18
55171;BME280;41060;47.510;8.680;2022-12-10T11:40:12;96026.28;;;3.17;60.77
55171;BME280;41060;47.510;8.680;2022-12-10T11:42:48;96027.56;;;3.12;60.64
55171;BME280;41060;47.510;8.680;2022-12-10T11:45:22;96040.13;;;3.32;60.91
55171;BME280;41060;47.510;8.680;2022-12-10T11:48:00;96039.09;;;3.34;60.78
55171;BME280;41060;47.510;8.680;2022-12-10T11:50:37;96001.69;;;3.07;60.45
55171;BME280;41060;47.510;8.680;2022-12-10T11:53:18;96038.94;;;3.36;60.45
55171;BME280;41060;47.510;8.680;2022-12-10T11:56:01;96034.56;;;3.24;59.99
55171;BME280;41060;47.510;8.680;2022-12-10T11:58:41;96040.53;;;3.26;60.67
55171;BME280;41060;47.510;8.680;2022-12-10T12:01:13;96055.69;;;3.08;60.86
55171;BME280;41060;47.510;8.680;2022-12-10T12:04:13;96053.91;;;3.21;61.41
55171;BME280;41060;47.510;8.680;2022-12-10T12:06:55;96056.53;;;3.21;60.61
55171;BME280;41060;47.510;8.680;2022-12-10T12:09:31;96054.56;;;3.25;60.94
55171;BME280;41060;47.510;8.680;2022-12-10T12:12:13;96053.81;;;3.35;60.69
55171;BME280;41060;47.510;8.680;2022-12-10T12:14:47;96077.78;;;3.29;61.02
55171;BME280;41060;47.510;8.680;2022-12-10T12:17:19;96073.78;;;3.11;60.68
55171;BME280;41060;47.510;8.680;2022-12-10T12:19:50;96063.53;;;3.08;60.63
55171;BME280;41060;47.510;8.680;2022-12-10T12:22:23;96073.81;;;3.24;60.79
55171;BME280;41060;47.510;8.680;2022-12-10T12:24:54;96059.22;;;2.94;60.33
55171;BME280;41060;47.510;8.680;2022-12-10T12:27:29;96087.72;;;3.12;60.11
55171;BME280;41060;47.510;8.680;2022-12-10T12:30:03;96084.44;;;3.08;60.41
55171;BME280;41060;47.510;8.680;2022-12-10T12:32:38;96095.06;;;2.92;60.68
55171;BME280;41060;47.510;8.680;2022-12-10T12:35:12;96090.81;;;3.04;60.45
55171;BME280;41060;47.510;8.680;2022-12-10T12:37:44;96096.78;;;3.06;60.59
55171;BME280;41060;47.510;8.680;2022-12-10T12:40:14;96098.56;;;3.06;59.92
55171;BME280;41060;47.510;8.680;2022-12-10T12:42:49;96088.13;;;3.06;60.61
55171;BME280;41060;47.510;8.680;2022-12-10T12:45:20;96093.59;;;2.88;61.47
55171;BME280;41060;47.510;8.680;2022-12-10T12:47:53;96093.00;;;2.97;61.01
55171;BME280;41060;47.510;8.680;2022-12-10T12:50:26;96105.03;;;3.00;60.33
55171;BME280;41060;47.510;8.680;2022-12-10T12:52:58;96096.16;;;3.03;60.34
55171;BME280;41060;47.510;8.680;2022-12-10T12:55:31;96100.53;;;3.02;60.07
55171;BME280;41060;47.510;8.680;2022-12-10T12:58:13;96107.72;;;2.98;60.08
55171;BME280;41060;47.510;8.680;2022-12-10T13:00:46;96113.94;;;2.97;60.74
55171;BME280;41060;47.510;8.680;2022-12-10T13:03:27;96056.22;;;2.47;61.26
55171;BME280;41060;47.510;8.680;2022-12-10T13:06:11;96116.53;;;2.97;60.93
55171;BME280;41060;47.510;8.680;2022-12-10T13:08:43;96125.22;;;2.98;60.91
55171;BME280;41060;47.510;8.680;2022-12-10T13:11:32;96124.25;;;2.99;60.79
55171;BME280;41060;47.510;8.680;2022-12-10T13:14:17;96131.88;;;2.89;60.25
55171;BME280;41060;47.510;8.680;2022-12-10T13:17:26;96144.31;;;2.86;59.53
55171;BME280;41060;47.510;8.680;2022-12-10T13:20:24;96137.44;;;2.71;60.60
55171;BME280;41060;47.510;8.680;2022-12-10T13:22:55;96136.09;;;2.51;60.83
55171;BME280;41060;47.510;8.680;2022-12-10T13:25:39;96148.03;;;2.55;60.80
55171;BME280;41060;47.510;8.680;2022-12-10T13:28:22;96153.13;;;2.71;60.75